Time;durP1;ratioP1;P1;durP2;ratioP2;P2;SDS_P1;SDS_P2;PMS_P1;PMS_P2;Temp;Humidity;BMP_temperature;BMP_pressure;BME280_temperature;BME280_humidity;BME280_pressure;Samples;Min_cycle;Max_cycle;Signal;HPM_P1;HPM_P2
2022/02/16 00:01:37;;;;;;;5.43;2.33;;;3.50;94.00;;;;;;5137572;27;20164;-45
2022/02/16 00:04:03;;;;;;;4.67;2.23;;;3.60;94.00;;;;;;5139686;27;20187;-41
2022/02/16 00:06:29;;;;;;;4.00;2.10;;;3.50;93.90;;;;;;5138098;27;20270;-40
2022/02/16 00:08:58;;;;;;;2.73;2.00;;;3.50;94.10;;;;;;5139904;27;20199;-46
2022/02/16 00:11:23;;;;;;;3.47;2.23;;;3.50;94.10;;;;;;5138571;27;20179;-41
2022/02/16 00:13:49;;;;;;;4.33;1.77;;;3.40;94.10;;;;;;5140024;27;20445;-45
2022/02/16 00:16:15;;;;;;;3.57;1.90;;;3.40;94.20;;;;;;5139282;27;20167;-45
2022/02/16 00:18:40;;;;;;;2.83;1.90;;;3.50;94.20;;;;;;5140212;27;20330;-42
2022/02/16 00:21:07;;;;;;;2.67;1.83;;;3.50;94.20;;;;;;5139341;27;20171;-44
2022/02/16 00:23:32;;;;;;;7.00;2.10;;;3.50;94.30;;;;;;5139768;27;20432;-43
2022/02/16 00:26:00;;;;;;;2.33;1.80;;;3.50;94.20;;;;;;5138438;27;20474;-40
2022/02/16 00:28:26;;;;;;;20.50;2.80;;;3.50;94.20;;;;;;5140307;27;20183;-41
2022/02/16 00:30:52;;;;;;;6.80;2.70;;;3.50;94.30;;;;;;5138055;27;20861;-41
2022/02/16 00:33:18;;;;;;;4.90;2.10;;;3.50;94.40;;;;;;5140251;27;20466;-40
2022/02/16 00:35:43;;;;;;;3.43;1.97;;;3.50;94.40;;;;;;5137970;27;20628;-41
2022/02/16 00:38:11;;;;;;;4.97;2.00;;;3.60;94.40;;;;;;5139887;27;20582;-39
2022/02/16 00:40:36;;;;;;;4.47;2.23;;;3.60;94.50;;;;;;5139947;27;20474;-39
2022/02/16 00:43:02;;;;;;;4.50;2.30;;;3.60;94.40;;;;;;5138157;27;20525;-40
2022/02/16 00:45:28;;;;;;;7.60;2.50;;;3.60;94.50;;;;;;5139974;27;20696;-45
2022/02/16 00:47:54;;;;;;;3.50;1.80;;;3.60;94.50;;;;;;5139048;27;20435;-45
2022/02/16 00:50:20;;;;;;;6.27;2.10;;;3.60;94.40;;;;;;5139592;27;20191;-44
2022/02/16 00:52:46;;;;;;;3.73;2.07;;;3.70;94.50;;;;;;5138616;27;20428;-40
2022/02/16 00:55:12;;;;;;;5.50;2.40;;;3.70;94.40;;;;;;5121668;27;20246;-42
2022/02/16 00:57:38;;;;;;;4.80;2.20;;;3.80;94.30;;;;;;5138795;27;20462;-45
2022/02/16 01:00:04;;;;;;;3.80;2.03;;;3.80;94.30;;;;;;5139428;27;20183;-41
2022/02/16 01:02:30;;;;;;;9.93;2.67;;;3.80;94.20;;;;;;5138275;27;20577;-39
2022/02/16 01:04:56;;;;;;;1.97;1.77;;;3.90;94.20;;;;;;5139145;27;20436;-44
2022/02/16 01:07:21;;;;;;;3.47;1.47;;;3.90;94.20;;;;;;5138477;27;20506;-44
2022/02/16 01:09:47;;;;;;;2.63;1.97;;;3.90;94.10;;;;;;5139878;27;20183;-44
2022/02/16 01:12:14;;;;;;;5.23;1.73;;;4.00;94.00;;;;;;5139538;27;20458;-40
2022/02/16 01:14:40;;;;;;;5.20;1.80;;;4.00;93.90;;;;;;5137789;27;20211;-40
2022/02/16 01:17:06;;;;;;;4.10;1.80;;;4.00;93.90;;;;;;5139661;27;20439;-44
2022/02/16 01:19:32;;;;;;;2.70;1.60;;;3.90;94.00;;;;;;5136942;27;20537;-39
2022/02/16 01:21:57;;;;;;;3.40;1.70;;;4.00;94.00;;;;;;5139505;27;20429;-38
2022/02/16 01:24:23;;;;;;;2.20;1.60;;;4.00;94.00;;;;;;5137843;27;20202;-41
2022/02/16 01:26:49;;;;;;;3.57;1.80;;;4.00;94.00;;;;;;5139476;27;20180;-42
2022/02/16 01:29:15;;;;;;;4.33;2.20;;;4.10;94.20;;;;;;5138102;27;20171;-44
2022/02/16 01:31:40;;;;;;;6.50;1.80;;;4.10;94.30;;;;;;5139374;27;20550;-42
2022/02/16 01:34:06;;;;;;;5.17;1.57;;;4.10;94.20;;;;;;5136437;27;20507;-43
2022/02/16 01:36:32;;;;;;;4.10;1.67;;;4.10;94.20;;;;;;5139103;27;20180;-44
2022/02/16 01:38:57;;;;;;;2.60;1.53;;;4.00;94.30;;;;;;5137637;27;20527;-42
2022/02/16 01:41:23;;;;;;;3.93;1.40;;;4.10;94.30;;;;;;5138650;27;20589;-42
2022/02/16 01:43:50;;;;;;;3.20;1.83;;;4.00;94.20;;;;;;5137898;27;20172;-42
2022/02/16 01:46:16;;;;;;;2.60;1.60;;;4.00;94.20;;;;;;5139146;27;20244;-42
2022/02/16 01:48:43;;;;;;;3.27;1.50;;;4.00;94.40;;;;;;5137315;27;20696;-42
2022/02/16 01:51:09;;;;;;;6.93;1.80;;;4.00;94.40;;;;;;5138841;27;20413;-39
2022/02/16 01:53:35;;;;;;;3.70;2.10;;;4.00;94.30;;;;;;5137652;27;20409;-42
2022/02/16 01:56:01;;;;;;;4.87;1.63;;;4.00;94.20;;;;;;5138808;27;20565;-39
2022/02/16 01:58:28;;;;;;;2.50;1.67;;;3.90;94.30;;;;;;5118924;28;20432;-43
2022/02/16 02:00:55;;;;;;;4.20;2.10;;;3.90;94.30;;;;;;5120765;28;20550;-42
2022/02/16 02:03:20;;;;;;;2.47;1.50;;;4.00;94.50;;;;;;5137924;27;20745;-41
2022/02/16 02:05:50;;;;;;;3.10;1.97;;;4.00;94.10;;;;;;5138447;28;20520;-41
2022/02/16 02:08:16;;;;;;;3.43;1.77;;;3.90;94.30;;;;;;5137652;28;20172;-41
2022/02/16 02:10:42;;;;;;;5.20;2.17;;;3.90;93.80;;;;;;5137771;28;20420;-41
2022/02/16 02:13:09;;;;;;;8.07;1.70;;;3.90;93.80;;;;;;5136675;28;20229;-41
2022/02/16 02:18:57;;;;;;;2.40;1.23;;;3.90;93.80;;;;;;5136461;28;20509;-40
2022/02/16 02:21:23;;;;;;;4.07;1.70;;;3.90;93.90;;;;;;5138317;28;20421;-43
2022/02/16 02:23:49;;;;;;;4.73;1.30;;;4.00;93.90;;;;;;5138136;28;20435;-41
2022/02/16 02:26:16;;;;;;;4.60;2.10;;;4.00;93.90;;;;;;5138484;28;20811;-42
2022/02/16 02:28:42;;;;;;;6.80;1.77;;;4.00;94.00;;;;;;5137273;28;20481;-42
2022/02/16 02:31:08;;;;;;;3.47;1.50;;;4.00;93.90;;;;;;5138438;28;20725;-40
2022/02/16 02:33:33;;;;;;;3.30;1.53;;;4.00;94.00;;;;;;5136723;28;20210;-44
2022/02/16 02:35:59;;;;;;;2.13;1.73;;;4.10;94.10;;;;;;5138663;28;20413;-41
2022/02/16 02:38:26;;;;;;;3.00;1.40;;;4.00;94.00;;;;;;5137637;28;20437;-40
2022/02/16 02:40:56;;;;;;;3.30;1.30;;;4.10;94.00;;;;;;5138129;28;20838;-42
2022/02/16 02:43:22;;;;;;;3.80;1.13;;;4.10;94.00;;;;;;5137614;28;20493;-39
2022/02/16 02:45:48;;;;;;;3.83;1.40;;;4.10;94.10;;;;;;5140742;27;20401;-44
2022/02/16 02:48:14;;;;;;;2.60;1.23;;;4.10;94.10;;;;;;5141167;27;21106;-41
2022/02/16 02:50:39;;;;;;;1.73;1.10;;;4.20;94.10;;;;;;5141894;27;20409;-41
2022/02/16 02:53:05;;;;;;;1.93;1.10;;;4.20;94.10;;;;;;5122680;27;20429;-42
2022/02/16 02:55:31;;;;;;;7.47;1.77;;;4.20;94.10;;;;;;5142080;27;20224;-40
2022/02/16 02:57:56;;;;;;;1.57;1.27;;;4.20;94.20;;;;;;5140953;27;20176;-41
2022/02/16 03:00:22;;;;;;;3.20;1.47;;;4.10;94.30;;;;;;5142388;27;20176;-40
2022/02/16 03:02:47;;;;;;;2.17;1.50;;;4.20;94.50;;;;;;5140486;27;20167;-44
2022/02/16 03:05:14;;;;;;;4.00;1.20;;;4.10;94.50;;;;;;5142188;27;20226;-41
2022/02/16 03:07:40;;;;;;;4.50;2.40;;;4.20;94.60;;;;;;5142121;27;20175;-42
2022/02/16 03:10:07;;;;;;;1.70;1.20;;;4.10;94.70;;;;;;5141390;27;20504;-45
2022/02/16 03:12:32;;;;;;;3.90;1.03;;;4.10;94.80;;;;;;5142104;27;20416;-45
2022/02/16 03:14:58;;;;;;;1.67;1.13;;;4.10;94.80;;;;;;5141740;27;20458;-40
2022/02/16 03:17:28;;;;;;;5.03;1.43;;;4.20;94.80;;;;;;5140636;27;20179;-44
2022/02/16 03:19:54;;;;;;;2.40;1.30;;;4.20;94.90;;;;;;5141637;27;20440;-43
2022/02/16 03:22:19;;;;;;;5.60;1.30;;;4.20;94.90;;;;;;5140666;27;20412;-39
2022/02/16 03:24:46;;;;;;;1.90;1.50;;;4.20;94.90;;;;;;5141586;27;20188;-42
2022/02/16 03:27:11;;;;;;;2.33;1.20;;;4.20;94.90;;;;;;5140421;27;20180;-41
2022/02/16 03:29:37;;;;;;;3.03;1.07;;;4.20;94.80;;;;;;5123450;27;20448;-44
2022/02/16 03:32:03;;;;;;;3.50;1.50;;;4.20;94.80;;;;;;5140812;27;20180;-42
2022/02/16 03:34:29;;;;;;;5.50;1.20;;;4.20;94.90;;;;;;5141771;27;20211;-40
2022/02/16 03:36:55;;;;;;;3.77;1.13;;;4.20;94.90;;;;;;5140214;27;20759;-38
2022/02/16 03:39:20;;;;;;;2.67;1.10;;;4.20;94.80;;;;;;5141613;27;20421;-40
2022/02/16 03:41:46;;;;;;;3.43;1.00;;;4.30;94.90;;;;;;5139971;27;20168;-45
2022/02/16 03:44:12;;;;;;;2.33;1.23;;;4.30;95.00;;;;;;5123053;27;20175;-45
2022/02/16 03:46:37;;;;;;;2.03;1.20;;;4.30;95.10;;;;;;5140507;27;20182;-44
2022/02/16 03:49:03;;;;;;;2.80;1.13;;;4.30;95.00;;;;;;5140131;27;20263;-42
2022/02/16 03:51:29;;;;;;;2.47;1.10;;;4.30;94.90;;;;;;5140983;27;20211;-44
2022/02/16 03:53:55;;;;;;;2.27;1.20;;;4.40;94.80;;;;;;5139724;27;20465;-40
2022/02/16 03:56:20;;;;;;;2.93;1.20;;;4.40;94.70;;;;;;5140982;27;20183;-45
2022/02/16 03:58:46;;;;;;;1.70;1.10;;;4.40;94.60;;;;;;5139863;27;20183;-44
2022/02/16 04:01:11;;;;;;;2.80;1.10;;;4.40;94.90;;;;;;5140530;27;20278;-41
2022/02/16 04:03:37;;;;;;;1.10;0.77;;;4.40;94.50;;;;;;5139038;27;20199;-41
2022/02/16 04:06:03;;;;;;;5.83;1.40;;;4.50;94.50;;;;;;5141321;27;20196;-44
2022/02/16 04:08:29;;;;;;;2.37;1.17;;;4.50;94.40;;;;;;5138810;27;20199;-43
2022/02/16 04:10:54;;;;;;;2.90;1.20;;;4.50;94.40;;;;;;5122623;27;20461;-44
2022/02/16 04:13:20;;;;;;;1.70;1.10;;;4.50;94.40;;;;;;5139340;27;20179;-44
2022/02/16 04:15:46;;;;;;;3.00;1.20;;;4.50;94.40;;;;;;5140428;27;20222;-39
2022/02/16 04:18:11;;;;;;;2.70;0.90;;;4.60;94.40;;;;;;5139059;27;20219;-44
2022/02/16 04:20:37;;;;;;;1.67;0.90;;;4.60;94.40;;;;;;5122596;27;20461;-45
2022/02/16 04:23:04;;;;;;;1.50;0.90;;;4.50;94.40;;;;;;5138622;27;20194;-38
2022/02/16 04:25:30;;;;;;;1.13;0.90;;;4.60;94.40;;;;;;5140288;27;20413;-43
2022/02/16 04:27:55;;;;;;;2.00;1.17;;;4.60;94.40;;;;;;5139384;27;20834;-43
2022/02/16 04:30:21;;;;;;;3.10;1.10;;;4.60;94.50;;;;;;5140298;27;20306;-43
2022/02/16 04:32:47;;;;;;;1.63;1.20;;;4.60;94.50;;;;;;5138987;27;20190;-41
2022/02/16 04:35:12;;;;;;;1.93;0.80;;;4.60;94.50;;;;;;5139763;27;20209;-39
2022/02/16 04:37:38;;;;;;;1.30;1.10;;;4.60;94.60;;;;;;5138350;27;20175;-43
2022/02/16 04:40:05;;;;;;;3.07;0.90;;;4.70;94.80;;;;;;5140027;27;20549;-40
2022/02/16 04:42:31;;;;;;;1.43;0.80;;;4.70;94.70;;;;;;5139751;27;20175;-38
2022/02/16 04:44:57;;;;;;;1.77;0.90;;;4.70;94.80;;;;;;5138963;27;20417;-39
2022/02/16 04:47:23;;;;;;;1.63;1.00;;;4.70;94.90;;;;;;5139528;27;20413;-41
2022/02/16 04:49:48;;;;;;;1.83;0.90;;;4.70;94.90;;;;;;5138207;27;20550;-41
2022/02/16 04:52:14;;;;;;;1.50;0.80;;;4.70;94.90;;;;;;5139988;27;20270;-43
2022/02/16 04:54:40;;;;;;;2.00;0.83;;;4.70;95.00;;;;;;5138901;27;20621;-36
2022/02/16 04:57:06;;;;;;;1.33;0.67;;;4.70;95.10;;;;;;5139712;27;20180;-43
2022/02/16 04:59:31;;;;;;;1.60;0.90;;;4.60;95.20;;;;;;5137381;27;20476;-43
2022/02/16 05:01:57;;;;;;;1.73;0.77;;;4.70;95.20;;;;;;5137076;27;20854;-41
2022/02/16 05:04:23;;;;;;;2.30;1.73;;;4.70;95.40;;;;;;5136826;27;20172;-47
2022/02/16 05:06:48;;;;;;;3.00;1.30;;;4.70;95.60;;;;;;5139799;27;20183;-37
2022/02/16 05:09:14;;;;;;;2.67;1.40;;;4.70;95.50;;;;;;5138724;27;20180;-36
2022/02/16 05:11:40;;;;;;;1.23;1.00;;;4.70;95.50;;;;;;5136246;27;20179;-39
2022/02/16 05:14:05;;;;;;;1.60;1.00;;;4.80;95.60;;;;;;5135595;27;20210;-42
2022/02/16 05:16:31;;;;;;;1.67;0.80;;;4.80;95.60;;;;;;5135719;27;20172;-39
2022/02/16 05:18:59;;;;;;;6.53;1.30;;;4.80;95.60;;;;;;5134069;27;20283;-37
2022/02/16 05:21:25;;;;;;;1.43;0.97;;;4.80;95.70;;;;;;5135521;27;20421;-36
2022/02/16 05:23:50;;;;;;;1.10;0.60;;;4.70;95.80;;;;;;5135279;27;20428;-43
2022/02/16 05:26:16;;;;;;;2.00;0.93;;;4.70;96.00;;;;;;5137055;27;20819;-42
2022/02/16 05:28:42;;;;;;;1.50;0.87;;;4.70;96.10;;;;;;5135335;27;20252;-36
2022/02/16 05:31:07;;;;;;;2.10;0.87;;;4.70;96.10;;;;;;5136207;27;20255;-41
2022/02/16 05:33:33;;;;;;;1.30;0.70;;;4.70;96.20;;;;;;5139047;27;20549;-39
2022/02/16 05:35:59;;;;;;;1.30;0.90;;;4.70;96.20;;;;;;5142359;27;20176;-40
2022/02/16 05:38:24;;;;;;;1.10;0.80;;;4.70;96.40;;;;;;5137005;27;20172;-38
2022/02/16 05:40:50;;;;;;;1.70;0.77;;;4.70;96.40;;;;;;5135104;27;20171;-37
2022/02/16 05:43:17;;;;;;;1.10;0.80;;;4.70;96.50;;;;;;5136162;27;20518;-37
2022/02/16 05:45:44;;;;;;;1.60;0.80;;;4.70;96.60;;;;;;5135783;27;20183;-40
2022/02/16 05:48:10;;;;;;;1.47;0.80;;;4.70;96.70;;;;;;5135732;27;20689;-43
2022/02/16 05:50:36;;;;;;;1.90;0.90;;;4.70;96.70;;;;;;5136454;27;20425;-37
2022/02/16 05:53:03;;;;;;;1.80;1.00;;;4.70;96.80;;;;;;5135145;27;20436;-41
2022/02/16 05:55:29;;;;;;;3.00;0.83;;;4.70;96.90;;;;;;5136259;27;20461;-37
2022/02/16 05:57:55;;;;;;;2.60;1.17;;;4.70;96.90;;;;;;5133417;27;20427;-42
2022/02/16 06:00:20;;;;;;;2.23;0.80;;;4.70;96.90;;;;;;5134196;28;20838;-37
2022/02/16 06:02:46;;;;;;;1.80;0.90;;;4.70;97.00;;;;;;5134208;28;20323;-39
2022/02/16 06:05:13;;;;;;;1.73;1.00;;;4.70;97.00;;;;;;5135503;28;20490;-43
2022/02/16 06:07:38;;;;;;;0.90;0.60;;;4.70;97.10;;;;;;5116384;28;20264;-38
2022/02/16 06:10:05;;;;;;;1.97;0.67;;;4.70;97.30;;;;;;5136047;28;20475;-37
2022/02/16 06:12:30;;;;;;;1.50;0.83;;;4.70;97.20;;;;;;5132297;28;20225;-43
2022/02/16 06:14:56;;;;;;;2.63;0.90;;;4.70;97.30;;;;;;5134654;28;20563;-39
2022/02/16 06:17:21;;;;;;;2.50;0.83;;;4.70;97.30;;;;;;5132149;28;20167;-41
2022/02/16 06:19:47;;;;;;;0.90;0.70;;;4.70;97.30;;;;;;5132352;27;20192;-39
2022/02/16 06:22:13;;;;;;;1.00;0.77;;;4.70;97.60;;;;;;5135495;27;20243;-42
2022/02/16 06:24:38;;;;;;;1.80;0.80;;;4.80;97.70;;;;;;5136981;27;20729;-41
2022/02/16 06:27:04;;;;;;;3.40;0.80;;;4.70;97.40;;;;;;5135083;27;20500;-43
2022/02/16 06:29:30;;;;;;;1.63;0.80;;;4.80;97.40;;;;;;5134735;27;20187;-41
2022/02/16 06:31:56;;;;;;;1.40;0.97;;;4.80;97.30;;;;;;5115749;28;20200;-42
2022/02/16 06:34:21;;;;;;;1.37;0.73;;;4.80;97.40;;;;;;5119593;28;20619;-41
2022/02/16 06:36:49;;;;;;;2.27;0.90;;;4.80;97.50;;;;;;5119512;28;20460;-39
2022/02/16 06:39:16;;;;;;;3.37;0.90;;;4.80;97.40;;;;;;5119590;28;20172;-42
2022/02/16 06:41:42;;;;;;;1.50;0.80;;;4.80;97.50;;;;;;5118012;28;20410;-40
2022/02/16 06:44:07;;;;;;;1.37;0.90;;;4.90;97.60;;;;;;5116020;28;20513;-43
2022/02/16 06:46:33;;;;;;;1.07;0.70;;;4.90;97.50;;;;;;5116309;28;20176;-39
2022/02/16 06:48:59;;;;;;;1.67;0.80;;;4.90;97.50;;;;;;5097687;28;20534;-42
2022/02/16 06:51:24;;;;;;;1.00;0.80;;;4.90;97.60;;;;;;5117390;28;20275;-45
2022/02/16 06:53:55;;;;;;;1.40;1.00;;;4.90;97.50;;;;;;5115561;28;20176;-38
2022/02/16 06:56:22;;;;;;;1.57;0.90;;;4.90;97.60;;;;;;5115200;28;20366;-42
2022/02/16 06:58:48;;;;;;;1.17;0.90;;;4.90;97.70;;;;;;5115746;28;20589;-39
2022/02/16 07:01:14;;;;;;;1.50;0.90;;;4.90;98.00;;;;;;5099583;28;20436;-37
2022/02/16 07:03:39;;;;;;;1.47;1.27;;;4.90;97.70;;;;;;5115460;28;20402;-38
2022/02/16 07:06:08;;;;;;;2.70;1.00;;;5.00;97.80;;;;;;5116185;28;20188;-42
2022/02/16 07:08:34;;;;;;;1.60;1.10;;;5.00;97.80;;;;;;5115924;28;20168;-40
2022/02/16 07:11:00;;;;;;;1.30;0.60;;;5.00;97.90;;;;;;5115013;28;20433;-38
2022/02/16 07:13:25;;;;;;;2.00;0.97;;;5.10;97.80;;;;;;5098156;28;20253;-42
2022/02/16 07:15:51;;;;;;;1.30;0.80;;;5.00;97.80;;;;;;5099418;28;20478;-41
2022/02/16 07:18:18;;;;;;;1.00;0.80;;;5.10;97.80;;;;;;5100358;28;20223;-42
2022/02/16 07:20:44;;;;;;;1.67;1.20;;;5.10;97.80;;;;;;5116801;28;20160;-38
2022/02/16 07:23:11;;;;;;;1.87;1.30;;;5.10;97.80;;;;;;5118299;28;20754;-39
2022/02/16 07:25:37;;;;;;;2.20;0.90;;;5.10;97.80;;;;;;5099423;28;20434;-39
2022/02/16 07:28:04;;;;;;;0.97;0.60;;;5.10;97.90;;;;;;5122829;28;20604;-38
2022/02/16 07:30:30;;;;;;;1.50;1.00;;;5.20;97.80;;;;;;5123369;28;20545;-40
2022/02/16 07:32:56;;;;;;;1.53;0.87;;;5.20;97.80;;;;;;5122723;28;20422;-40
2022/02/16 07:35:22;;;;;;;5.33;1.00;;;5.20;97.90;;;;;;5105837;28;20554;-40
2022/02/16 07:37:48;;;;;;;1.00;0.70;;;5.10;97.90;;;;;;5125708;28;20414;-39
2022/02/16 07:40:13;;;;;;;1.93;0.90;;;5.10;98.00;;;;;;5122087;28;20176;-38
2022/02/16 07:42:39;;;;;;;1.87;1.10;;;5.10;98.00;;;;;;5116932;28;20180;-39
2022/02/16 07:45:06;;;;;;;2.20;0.80;;;5.10;98.00;;;;;;5116634;28;20562;-38
2022/02/16 07:47:32;;;;;;;1.10;0.90;;;5.20;98.20;;;;;;5118267;28;20503;-38
2022/02/16 07:49:58;;;;;;;1.37;0.70;;;5.20;98.10;;;;;;5117786;28;20478;-38
2022/02/16 07:52:24;;;;;;;0.90;0.70;;;5.20;98.20;;;;;;5120908;28;20269;-41
2022/02/16 07:54:50;;;;;;;1.40;0.70;;;5.20;98.20;;;;;;5121773;28;20470;-40
2022/02/16 07:57:16;;;;;;;1.67;0.90;;;5.30;98.10;;;;;;5121720;28;20437;-38
2022/02/16 07:59:41;;;;;;;1.20;0.90;;;5.30;98.20;;;;;;5119049;28;20176;-39
2022/02/16 08:02:08;;;;;;;1.20;0.83;;;5.30;98.40;;;;;;5120095;28;20410;-39
2022/02/16 08:04:33;;;;;;;1.20;0.70;;;5.30;98.10;;;;;;5120466;28;20237;-41
2022/02/16 08:07:01;;;;;;;3.87;1.07;;;5.30;98.10;;;;;;5121799;28;20434;-39
2022/02/16 08:09:28;;;;;;;3.27;1.00;;;5.40;98.10;;;;;;5121790;28;20186;-39
2022/02/16 08:11:54;;;;;;;1.50;1.00;;;5.40;98.00;;;;;;5122503;28;20659;-39
2022/02/16 08:14:20;;;;;;;1.10;0.80;;;5.40;98.10;;;;;;5122854;28;20480;-42
2022/02/16 08:16:46;;;;;;;2.57;1.40;;;5.40;98.10;;;;;;5124354;28;20445;-39
2022/02/16 08:19:12;;;;;;;0.93;0.73;;;5.50;98.10;;;;;;5124065;28;20660;-42
2022/02/16 08:21:38;;;;;;;1.27;1.03;;;5.50;97.90;;;;;;5117172;28;20172;-43
2022/02/16 08:24:05;;;;;;;1.47;0.93;;;5.50;98.00;;;;;;5115999;28;20183;-39
2022/02/16 08:26:31;;;;;;;1.17;0.90;;;5.50;98.10;;;;;;5114288;28;20410;-41
2022/02/16 08:28:57;;;;;;;1.83;0.80;;;5.40;98.10;;;;;;5098043;28;20670;-43
2022/02/16 08:31:22;;;;;;;1.30;0.83;;;5.50;98.30;;;;;;5117344;28;20173;-39
2022/02/16 08:33:48;;;;;;;1.83;0.90;;;5.40;98.40;;;;;;5114835;28;20519;-39
2022/02/16 08:36:15;;;;;;;1.53;0.70;;;5.40;98.70;;;;;;5118048;28;20566;-38
2022/02/16 08:38:42;;;;;;;1.23;1.03;;;5.50;99.00;;;;;;5116101;28;20422;-38
2022/02/16 08:41:08;;;;;;;2.13;1.17;;;5.50;99.10;;;;;;5117907;28;20725;-39
2022/02/16 08:43:34;;;;;;;1.67;1.07;;;5.50;99.20;;;;;;5115786;28;20447;-41
2022/02/16 08:46:00;;;;;;;2.20;1.23;;;5.50;99.30;;;;;;5116008;28;20420;-41
2022/02/16 08:48:27;;;;;;;1.90;0.80;;;5.50;99.40;;;;;;5113995;28;20453;-39
2022/02/16 08:50:53;;;;;;;2.20;1.23;;;5.50;99.50;;;;;;5097416;28;20430;-39
2022/02/16 08:53:20;;;;;;;1.30;0.87;;;5.50;99.70;;;;;;5113551;28;20740;-38
2022/02/16 08:55:45;;;;;;;1.77;1.00;;;5.50;99.80;;;;;;5112152;28;20567;-40
2022/02/16 08:58:12;;;;;;;1.63;1.00;;;5.50;99.80;;;;;;5111327;28;20454;-37
2022/02/16 09:00:38;;;;;;;1.00;0.70;;;5.50;99.80;;;;;;5113241;28;20169;-39
2022/02/16 09:03:04;;;;;;;3.17;0.80;;;5.60;99.90;;;;;;5112633;28;20483;-39
2022/02/16 09:05:30;;;;;;;1.70;0.83;;;5.60;99.90;;;;;;5115747;28;20413;-40
2022/02/16 09:07:56;;;;;;;2.87;1.07;;;5.50;99.90;;;;;;5115670;28;20184;-40
2022/02/16 09:10:21;;;;;;;1.30;0.73;;;5.50;99.90;;;;;;5112102;28;20586;-40
2022/02/16 09:12:47;;;;;;;1.40;0.70;;;5.50;99.90;;;;;;5114926;28;20176;-38
2022/02/16 09:15:13;;;;;;;1.20;0.73;;;5.50;99.90;;;;;;5117724;28;20200;-38
2022/02/16 09:17:39;;;;;;;1.50;0.70;;;5.70;99.90;;;;;;5117677;28;20203;-39
2022/02/16 09:20:06;;;;;;;0.93;0.70;;;5.70;99.70;;;;;;5117523;28;20567;-37
2022/02/16 09:22:34;;;;;;;0.77;0.63;;;5.70;99.80;;;;;;5115057;28;20175;-38
2022/02/16 09:24:59;;;;;;;0.90;0.53;;;5.80;99.90;;;;;;5114968;28;20434;-40
2022/02/16 09:27:25;;;;;;;2.37;0.70;;;5.90;99.80;;;;;;5115712;28;20430;-40
2022/02/16 09:29:51;;;;;;;1.00;0.53;;;6.00;99.60;;;;;;5114171;28;20185;-38
2022/02/16 09:32:17;;;;;;;1.50;0.80;;;6.00;99.50;;;;;;5116518;28;20536;-38
2022/02/16 09:34:45;;;;;;;0.80;0.53;;;6.00;99.50;;;;;;5114161;28;20526;-39
2022/02/16 09:37:11;;;;;;;1.00;0.60;;;6.00;99.40;;;;;;5117718;28;20283;-38
2022/02/16 09:39:37;;;;;;;1.30;0.60;;;6.00;99.40;;;;;;5117937;28;20410;-39
2022/02/16 09:42:03;;;;;;;0.93;0.57;;;6.00;99.40;;;;;;5115800;28;20705;-41
2022/02/16 09:44:57;;;;;;;0.80;0.60;;;6.00;99.50;;;;;;5099366;28;20595;-38
2022/02/16 09:47:23;;;;;;;0.90;0.50;;;6.10;99.40;;;;;;5116268;28;20411;-38
2022/02/16 09:49:48;;;;;;;1.40;0.67;;;6.20;99.50;;;;;;5114151;28;20857;-42
2022/02/16 09:52:14;;;;;;;1.30;0.70;;;6.40;99.40;;;;;;5115304;28;20429;-38
2022/02/16 09:54:40;;;;;;;0.97;0.60;;;6.40;99.00;;;;;;5113544;28;20793;-40
2022/02/16 09:57:06;;;;;;;0.93;0.53;;;6.40;98.90;;;;;;5116042;28;20191;-38
2022/02/16 09:59:33;;;;;;;0.80;0.60;;;6.50;98.80;;;;;;5115014;28;20255;-37
2022/02/16 10:02:02;;;;;;;1.03;0.63;;;6.50;98.80;;;;;;5112666;28;20513;-42
2022/02/16 10:04:32;;;;;;;0.90;0.50;;;6.50;99.00;;;;;;5098179;28;20414;-40
2022/02/16 10:06:59;;;;;;;1.03;0.70;;;6.50;98.90;;;;;;5113581;28;20520;-37
2022/02/16 10:09:24;;;;;;;1.17;0.63;;;6.40;99.20;;;;;;5117771;28;20422;-38
2022/02/16 10:11:54;;;;;;;1.03;0.70;;;6.50;99.10;;;;;;5116682;28;20421;-40
2022/02/16 10:14:39;;;;;;;1.00;0.53;;;6.60;99.20;;;;;;5121054;28;20472;-41
2022/02/16 10:17:25;;;;;;;0.90;0.50;;;6.60;99.10;;;;;;5081354;28;20745;-38
2022/02/16 10:19:54;;;;;;;1.20;0.70;;;6.70;99.20;;;;;;5115329;28;20454;-41
2022/02/16 10:22:21;;;;;;;1.00;0.60;;;6.90;98.90;;;;;;5114559;28;20410;-41
2022/02/16 10:24:47;;;;;;;2.40;0.60;;;6.90;98.70;;;;;;5114548;28;20500;-38
2022/02/16 10:27:14;;;;;;;3.50;0.90;;;6.90;98.70;;;;;;5117217;28;20521;-40
2022/02/16 10:29:41;;;;;;;1.20;0.77;;;7.00;98.70;;;;;;5114390;28;20464;-38
2022/02/16 10:32:08;;;;;;;0.97;0.60;;;7.10;98.80;;;;;;5097790;28;20421;-42
2022/02/16 10:34:57;;;;;;;0.90;0.50;;;7.00;98.70;;;;;;5115443;28;20464;-38
2022/02/16 10:37:37;;;;;;;0.87;0.67;;;7.00;99.00;;;;;;5114430;28;20422;-39
2022/02/16 10:40:12;;;;;;;1.80;0.53;;;7.00;99.10;;;;;;5115520;28;20478;-40
2022/02/16 10:43:01;;;;;;;1.23;0.87;;;7.10;98.90;;;;;;5116287;28;20504;-42
2022/02/16 10:45:30;;;;;;;1.40;0.60;;;7.30;98.80;;;;;;5114070;28;20414;-39
2022/02/16 10:48:01;;;;;;;1.00;0.50;;;7.50;98.50;;;;;;5116924;28;20426;-39
2022/02/16 10:50:33;;;;;;;1.20;0.80;;;7.90;98.20;;;;;;5112310;28;20564;-42
2022/02/16 10:53:04;;;;;;;1.20;0.60;;;8.20;97.60;;;;;;5112668;28;20430;-39
2022/02/16 10:55:40;;;;;;;1.33;0.80;;;8.60;97.10;;;;;;5095325;28;20733;-42
2022/02/16 10:58:14;;;;;;;1.13;0.63;;;9.00;96.40;;;;;;5112739;28;20422;-40
2022/02/16 11:00:42;;;;;;;1.30;0.83;;;9.30;95.80;;;;;;5113515;28;20714;-40
2022/02/16 11:03:09;;;;;;;2.00;0.77;;;10.10;94.10;;;;;;5097294;28;20851;-39
2022/02/16 11:05:43;;;;;;;0.87;0.53;;;10.70;93.10;;;;;;5115351;28;20413;-41
2022/02/16 11:08:14;;;;;;;1.30;0.57;;;11.20;92.50;;;;;;5118141;28;20481;-40
2022/02/16 11:10:45;;;;;;;2.10;0.57;;;12.30;90.20;;;;;;5116178;28;20583;-43
2022/02/16 11:13:12;;;;;;;1.00;0.67;;;12.80;88.10;;;;;;5116931;28;20441;-42
2022/02/16 11:15:39;;;;;;;1.13;0.73;;;12.20;88.00;;;;;;5117100;28;20489;-40
2022/02/16 11:18:43;;;;;;;1.10;0.70;;;11.40;90.00;;;;;;5081593;28;20476;-41
2022/02/16 11:21:10;;;;;;;1.47;0.77;;;10.50;91.60;;;;;;5116522;28;20426;-41
2022/02/16 11:23:42;;;;;;;0.90;0.60;;;10.00;93.00;;;;;;5117199;28;20765;-39
2022/02/16 11:26:48;;;;;;;1.67;0.90;;;10.00;93.60;;;;;;5115295;28;20453;-41
2022/02/16 11:29:26;;;;;;;1.13;0.80;;;9.90;94.80;;;;;;5116935;28;20482;-40
2022/02/16 11:31:53;;;;;;;1.33;0.70;;;10.00;94.20;;;;;;5115834;28;20429;-41
2022/02/16 11:34:23;;;;;;;2.30;1.10;;;9.90;95.10;;;;;;5118711;28;20468;-44
2022/02/16 11:36:56;;;;;;;1.10;0.80;;;10.10;94.40;;;;;;5118825;28;20420;-40
2022/02/16 11:39:45;;;;;;;3.20;0.90;;;10.00;94.70;;;;;;5118798;28;20430;-42
2022/02/16 11:42:17;;;;;;;1.30;0.90;;;10.60;94.30;;;;;;5116949;28;20413;-42
2022/02/16 11:44:51;;;;;;;1.00;0.80;;;11.00;93.60;;;;;;5119310;28;20431;-42
2022/02/16 11:47:35;;;;;;;1.43;0.90;;;10.90;93.40;;;;;;5117025;28;20424;-43
2022/02/16 11:50:02;;;;;;;1.20;0.70;;;11.00;93.20;;;;;;5118298;28;20418;-41
2022/02/16 11:52:35;;;;;;;1.73;0.80;;;11.00;93.80;;;;;;5117402;28;20422;-41
2022/02/16 11:55:01;;;;;;;3.10;1.07;;;10.80;93.80;;;;;;5102832;28;20461;-42
2022/02/16 11:57:26;;;;;;;0.83;0.60;;;10.60;94.20;;;;;;5116765;28;20422;-41
2022/02/16 12:00:00;;;;;;;0.90;0.50;;;10.50;95.00;;;;;;5124875;27;20485;-41
2022/02/16 12:02:26;;;;;;;1.00;0.60;;;10.50;95.00;;;;;;5133304;27;20577;-39
2022/02/16 12:04:59;;;;;;;1.13;0.50;;;10.30;95.20;;;;;;5108161;27;20833;-43
2022/02/16 12:07:30;;;;;;;1.17;0.50;;;10.20;95.60;;;;;;5100448;27;20190;-43
2022/02/16 12:10:22;;;;;;;0.70;0.40;;;10.00;96.00;;;;;;5136872;27;20815;-40
2022/02/16 12:12:49;;;;;;;1.50;1.00;;;9.80;97.20;;;;;;5132463;27;20444;-41
2022/02/16 12:15:18;;;;;;;0.80;0.40;;;9.70;97.70;;;;;;5119686;27;20561;-39
2022/02/16 12:17:44;;;;;;;1.00;0.57;;;9.70;98.10;;;;;;5130338;27;20461;-38
2022/02/16 12:20:10;;;;;;;0.80;0.50;;;9.70;98.30;;;;;;5139265;27;20420;-41
2022/02/16 12:22:38;;;;;;;1.20;0.47;;;9.60;98.50;;;;;;5134827;27;20199;-41
2022/02/16 12:25:14;;;;;;;0.80;0.47;;;9.50;98.60;;;;;;5135517;27;20417;-44
2022/02/16 12:27:40;;;;;;;2.73;2.30;;;9.50;98.70;;;;;;5118123;27;20420;-42
2022/02/16 12:30:06;;;;;;;0.80;0.50;;;9.40;99.30;;;;;;5118893;27;20429;-40
2022/02/16 12:32:32;;;;;;;0.90;0.50;;;9.40;99.30;;;;;;5136610;27;20428;-42
2022/02/16 12:35:01;;;;;;;1.97;1.30;;;9.40;99.50;;;;;;5135057;27;20667;-40
2022/02/16 12:37:27;;;;;;;0.90;0.60;;;9.40;99.70;;;;;;5115125;27;20199;-41
2022/02/16 12:40:00;;;;;;;0.80;0.57;;;9.40;99.70;;;;;;5118076;27;20799;-40
2022/02/16 12:42:44;;;;;;;1.00;0.67;;;9.30;99.90;;;;;;5133785;27;20468;-41
2022/02/16 12:45:16;;;;;;;1.10;0.43;;;9.40;99.90;;;;;;5118028;27;20840;-41
2022/02/16 12:47:42;;;;;;;1.87;0.70;;;9.40;99.80;;;;;;5136013;27;20850;-41
2022/02/16 12:50:10;;;;;;;1.20;0.50;;;9.60;99.80;;;;;;5118764;27;20723;-41
2022/02/16 12:52:37;;;;;;;0.93;0.50;;;9.60;99.60;;;;;;5116976;27;20715;-40
2022/02/16 12:55:04;;;;;;;0.83;0.50;;;9.80;99.40;;;;;;5119496;27;20461;-42
2022/02/16 12:57:30;;;;;;;2.50;0.90;;;9.80;98.90;;;;;;5133238;27;20823;-42
2022/02/16 13:03:04;;;;;;;1.10;0.63;;;9.60;99.20;;;;;;5133021;27;20923;-43